Time;durP1;ratioP1;P1;durP2;ratioP2;P2;SDS_P1;SDS_P2;PMS_P1;PMS_P2;Temp;Humidity;BMP_temperature;BMP_pressure;BME280_temperature;BME280_humidity;BME280_pressure;Samples;Min_cycle;Max_cycle;Signal;HPM_P1;HPM_P2
2021/04/01 00:02:24;;;;;;;5.82;1.88;;;8.90;74.90;;;;;;4916799;29;20044;-61
2021/04/01 00:04:55;;;;;;;3.15;1.45;;;8.80;75.00;;;;;;4906060;29;20887;-62
2021/04/01 00:07:27;;;;;;;5.45;1.23;;;8.70;74.90;;;;;;4904894;29;20434;-62
2021/04/01 00:09:54;;;;;;;2.35;1.48;;;8.70;75.10;;;;;;4905655;29;20113;-61
2021/04/01 00:12:23;;;;;;;8.85;1.38;;;8.60;74.80;;;;;;4919890;29;20408;-61
2021/04/01 00:14:51;;;;;;;3.88;1.60;;;8.60;75.10;;;;;;4905840;29;20064;-61
2021/04/01 00:17:19;;;;;;;5.78;1.60;;;8.50;75.10;;;;;;4905813;29;20332;-62
2021/04/01 00:19:47;;;;;;;4.20;1.80;;;8.60;74.70;;;;;;4888560;29;20066;-61
2021/04/01 00:22:16;;;;;;;2.90;1.48;;;8.60;74.50;;;;;;4905703;29;20066;-62
2021/04/01 00:24:44;;;;;;;4.22;1.70;;;8.50;74.90;;;;;;4905863;29;20044;-62
2021/04/01 00:27:12;;;;;;;7.35;2.35;;;8.50;75.50;;;;;;4905323;29;20048;-63
2021/04/01 00:29:40;;;;;;;5.50;2.33;;;8.50;75.80;;;;;;4905238;29;20109;-61
2021/04/01 00:32:09;;;;;;;10.65;2.65;;;8.50;76.40;;;;;;4907164;29;20072;-62
2021/04/01 00:34:37;;;;;;;5.75;2.30;;;8.60;76.60;;;;;;4907460;29;20082;-62
2021/04/01 00:37:06;;;;;;;5.85;2.22;;;8.50;76.50;;;;;;4906515;29;20053;-61
2021/04/01 00:39:34;;;;;;;4.28;1.55;;;8.40;77.00;;;;;;4907341;29;20060;-62
2021/04/01 00:42:03;;;;;;;7.18;1.88;;;8.30;76.80;;;;;;4906748;29;20048;-62
2021/04/01 00:44:31;;;;;;;5.22;2.22;;;8.30;76.70;;;;;;4905846;29;20245;-63
2021/04/01 00:46:59;;;;;;;7.93;3.05;;;8.20;77.30;;;;;;4907585;29;20056;-62
2021/04/01 00:49:27;;;;;;;5.88;2.38;;;8.20;77.00;;;;;;4913125;29;20053;-62
2021/04/01 00:51:55;;;;;;;7.25;2.22;;;8.20;77.30;;;;;;4907473;29;20098;-62
2021/04/01 00:54:23;;;;;;;6.03;2.30;;;8.20;77.30;;;;;;4906029;29;20729;-62
2021/04/01 00:56:51;;;;;;;8.35;2.60;;;8.10;77.70;;;;;;4906875;29;20049;-63
2021/04/01 00:59:19;;;;;;;9.32;2.63;;;8.20;77.50;;;;;;4905780;29;20379;-61
2021/04/01 01:01:49;;;;;;;5.65;2.58;;;8.20;77.50;;;;;;4903965;29;20229;-62
2021/04/01 01:04:18;;;;;;;4.87;2.03;;;8.10;77.80;;;;;;4906674;29;20051;-62
2021/04/01 01:06:47;;;;;;;3.95;1.73;;;8.10;78.30;;;;;;4907229;29;20289;-62
2021/04/01 01:09:14;;;;;;;5.80;2.38;;;7.90;77.80;;;;;;4905481;29;20053;-61
2021/04/01 01:11:43;;;;;;;4.35;2.22;;;7.80;78.00;;;;;;4913131;29;20100;-61
2021/04/01 01:14:11;;;;;;;4.05;1.48;;;7.80;77.90;;;;;;4906420;29;20240;-62
2021/04/01 01:16:38;;;;;;;4.10;1.40;;;7.70;78.10;;;;;;4908847;29;20056;-62
2021/04/01 01:19:06;;;;;;;3.67;1.27;;;7.70;78.00;;;;;;4908616;29;20079;-62
2021/04/01 01:21:35;;;;;;;3.22;1.95;;;7.70;77.70;;;;;;4911025;29;20116;-62
2021/04/01 01:24:12;;;;;;;4.65;1.25;;;7.70;77.60;;;;;;3552560;29;10020745;-62
2021/04/01 01:26:41;;;;;;;5.13;1.67;;;7.70;77.80;;;;;;2368737;29;10001977;-62
2021/04/01 01:29:09;;;;;;;4.72;1.50;;;7.70;78.00;;;;;;4908952;29;20044;-62
2021/04/01 01:31:41;;;;;;;4.15;1.83;;;7.60;78.00;;;;;;4908352;29;20059;-61
2021/04/01 01:34:09;;;;;;;3.40;1.50;;;7.70;78.00;;;;;;4908276;29;20048;-61
2021/04/01 01:36:37;;;;;;;2.42;1.13;;;7.70;78.10;;;;;;4907949;29;20048;-61
2021/04/01 01:39:05;;;;;;;6.75;1.80;;;7.70;78.00;;;;;;4908119;29;20047;-63
2021/04/01 01:41:37;;;;;;;6.30;2.28;;;7.60;78.40;;;;;;4908553;29;20048;-62
2021/04/01 01:44:10;;;;;;;4.00;1.90;;;7.60;78.20;;;;;;4907193;29;20055;-61
2021/04/01 01:46:37;;;;;;;4.55;1.75;;;7.60;78.70;;;;;;4922572;29;20068;-62
2021/04/01 01:49:05;;;;;;;8.48;2.10;;;7.60;79.10;;;;;;4913954;29;20135;-63
2021/04/01 01:51:33;;;;;;;6.72;2.10;;;7.60;78.80;;;;;;4908831;29;20048;-62
2021/04/01 01:54:03;;;;;;;2.97;1.63;;;7.60;79.50;;;;;;4922202;29;20044;-62
2021/04/01 01:56:30;;;;;;;4.85;2.15;;;7.50;79.60;;;;;;4908789;29;20052;-61
2021/04/01 01:59:08;;;;;;;5.72;2.45;;;7.40;80.00;;;;;;4907511;29;20061;-62
2021/04/01 02:01:36;;;;;;;5.30;2.85;;;7.30;79.90;;;;;;4904634;29;20052;-62
2021/04/01 02:04:08;;;;;;;4.55;2.10;;;7.30;80.20;;;;;;4905906;29;20068;-62
2021/04/01 02:06:36;;;;;;;4.53;2.00;;;7.20;80.10;;;;;;4906424;29;20071;-62
2021/04/01 02:09:07;;;;;;;4.28;1.80;;;7.20;80.30;;;;;;4906697;29;20075;-62
2021/04/01 02:11:34;;;;;;;5.93;2.28;;;7.10;80.10;;;;;;4906608;29;20045;-63
2021/04/01 02:14:04;;;;;;;5.95;2.33;;;7.10;80.00;;;;;;4908555;29;20088;-61
2021/04/01 02:16:32;;;;;;;5.18;1.65;;;7.00;79.90;;;;;;4909500;29;20059;-62
2021/04/01 02:19:00;;;;;;;4.38;2.08;;;7.00;80.10;;;;;;4909790;29;20108;-63
2021/04/01 02:21:30;;;;;;;4.70;1.77;;;6.90;80.20;;;;;;4922180;29;20044;-62
2021/04/01 02:23:59;;;;;;;2.78;1.30;;;6.80;80.40;;;;;;4909317;29;20072;-62
2021/04/01 02:26:29;;;;;;;;;;;6.70;80.60;;;;;;4908528;29;20061;-61
2021/04/01 02:28:57;;;;;;;3.70;1.17;;;6.70;80.20;;;;;;4908333;29;19923;-62
2021/04/01 02:31:26;;;;;;;3.88;1.38;;;6.80;80.40;;;;;;4914919;29;20044;-62
2021/04/01 02:33:54;;;;;;;2.95;1.23;;;6.90;80.30;;;;;;4909738;29;20052;-63
2021/04/01 02:36:25;;;;;;;2.78;1.40;;;6.80;80.00;;;;;;4908367;29;20424;-62
2021/04/01 02:38:54;;;;;;;6.28;1.65;;;6.80;80.10;;;;;;4908973;29;20049;-62
2021/04/01 02:41:22;;;;;;;5.38;1.75;;;6.80;80.30;;;;;;4908274;29;20153;-62
2021/04/01 02:43:53;;;;;;;2.90;1.40;;;6.80;80.10;;;;;;4910243;29;20155;-61
2021/04/01 02:46:21;;;;;;;3.65;1.17;;;6.70;80.60;;;;;;4908538;29;20296;-62
2021/04/01 02:48:50;;;;;;;11.60;2.20;;;6.60;80.70;;;;;;4909504;29;20055;-63
2021/04/01 02:51:21;;;;;;;3.28;1.50;;;6.60;80.90;;;;;;4908737;29;20123;-62
2021/04/01 02:53:51;;;;;;;4.68;1.42;;;6.50;80.80;;;;;;4907656;29;20289;-62
2021/04/01 02:56:18;;;;;;;2.25;1.35;;;6.60;80.90;;;;;;4908311;29;20112;-62
2021/04/01 02:58:46;;;;;;;7.10;2.00;;;6.60;80.90;;;;;;4908999;29;20060;-62
2021/04/01 03:01:14;;;;;;;5.07;1.17;;;6.60;80.80;;;;;;4905297;29;20056;-61
2021/04/01 03:03:44;;;;;;;7.32;1.45;;;6.60;80.40;;;;;;4908214;29;20052;-61
2021/04/01 03:06:14;;;;;;;3.70;1.08;;;6.60;80.50;;;;;;4907804;29;20072;-61
2021/04/01 03:08:45;;;;;;;2.53;1.48;;;6.60;80.50;;;;;;4907697;29;20076;-62
2021/04/01 03:11:14;;;;;;;2.80;1.15;;;6.50;80.80;;;;;;4908854;29;20048;-62
2021/04/01 03:13:41;;;;;;;4.32;1.48;;;6.40;81.50;;;;;;4908025;29;20060;-62
2021/04/01 03:16:10;;;;;;;6.75;2.00;;;6.40;81.90;;;;;;4908558;29;20390;-61
2021/04/01 03:18:37;;;;;;;4.38;1.95;;;6.40;81.90;;;;;;4906998;29;20052;-62
2021/04/01 03:21:06;;;;;;;5.22;1.80;;;6.50;81.40;;;;;;4908166;29;20076;-61
2021/04/01 03:23:35;;;;;;;6.30;2.50;;;6.40;81.50;;;;;;4907465;29;20240;-61
2021/04/01 03:26:03;;;;;;;7.53;2.42;;;6.40;81.90;;;;;;4906255;29;20060;-61
2021/04/01 03:28:31;;;;;;;8.30;2.45;;;6.40;82.40;;;;;;4906658;29;20051;-62
2021/04/01 03:31:01;;;;;;;5.18;2.17;;;6.30;82.70;;;;;;4905683;29;20111;-61
2021/04/01 03:33:29;;;;;;;4.22;1.88;;;6.30;82.90;;;;;;4906779;29;20100;-62
2021/04/01 03:35:56;;;;;;;4.75;1.80;;;6.20;82.90;;;;;;4907078;29;20399;-62
2021/04/01 03:38:25;;;;;;;5.57;2.45;;;6.30;82.60;;;;;;4906237;29;20820;-62
2021/04/01 03:40:54;;;;;;;6.95;2.20;;;6.20;82.90;;;;;;4906104;29;20048;-61
2021/04/01 03:43:25;;;;;;;6.28;1.98;;;6.20;83.00;;;;;;4904649;29;20576;-62
2021/04/01 03:45:52;;;;;;;5.03;1.77;;;6.20;82.90;;;;;;4906137;29;20072;-62
2021/04/01 03:48:20;;;;;;;2.30;1.48;;;6.20;82.80;;;;;;4905791;29;20224;-62
2021/04/01 03:50:51;;;;;;;8.32;1.92;;;6.20;82.70;;;;;;4906134;29;20059;-62
2021/04/01 03:53:18;;;;;;;9.10;2.25;;;6.20;82.60;;;;;;4905960;29;20055;-62
2021/04/01 03:55:47;;;;;;;3.40;1.58;;;6.30;82.00;;;;;;4904368;29;20060;-61
2021/04/01 03:58:34;;;;;;;6.40;2.63;;;6.20;82.00;;;;;;4905687;29;20056;-63
2021/04/01 04:01:29;;;;;;;5.75;2.65;;;6.30;82.40;;;;;;4901599;29;20052;-61
2021/04/01 04:07:07;;;;;;;6.03;2.63;;;6.20;83.00;;;;;;4870853;29;20448;-63
2021/04/01 04:09:56;;;;;;;4.90;2.47;;;6.30;83.10;;;;;;4905269;29;20056;-61
2021/04/01 04:12:36;;;;;;;5.82;2.47;;;6.30;83.20;;;;;;4904222;29;20339;-62
2021/04/01 04:15:10;;;;;;;4.97;1.98;;;6.20;83.50;;;;;;4906516;29;20059;-61
2021/04/01 04:17:40;;;;;;;4.85;2.28;;;6.10;83.90;;;;;;4907863;29;20052;-62
2021/04/01 04:20:10;;;;;;;7.65;2.97;;;6.20;83.70;;;;;;4907150;29;20112;-62
2021/04/01 04:22:39;;;;;;;6.37;2.73;;;6.20;83.50;;;;;;4907431;29;20116;-62
2021/04/01 04:25:11;;;;;;;6.25;2.28;;;6.20;83.40;;;;;;4897607;29;20687;-62
2021/04/01 04:27:56;;;;;;;5.57;2.55;;;6.10;83.70;;;;;;4905957;29;20140;-61
2021/04/01 04:30:27;;;;;;;7.93;2.15;;;6.10;83.50;;;;;;4906771;29;20396;-62
2021/04/01 04:32:56;;;;;;;8.40;2.08;;;6.10;83.30;;;;;;4907847;29;20067;-61
2021/04/01 04:35:24;;;;;;;6.28;2.35;;;6.10;83.10;;;;;;4906822;29;21172;-62
2021/04/01 04:37:51;;;;;;;5.18;2.47;;;6.10;83.10;;;;;;4906749;29;20345;-62
2021/04/01 04:40:19;;;;;;;3.58;1.98;;;6.20;82.90;;;;;;4906290;29;20061;-62
2021/04/01 04:42:47;;;;;;;4.18;2.15;;;6.20;82.80;;;;;;4907111;29;20109;-61
2021/04/01 04:45:16;;;;;;;4.57;2.08;;;6.20;82.60;;;;;;4906953;29;20120;-61
2021/04/01 04:47:45;;;;;;;6.00;2.15;;;6.10;82.60;;;;;;4906955;29;20057;-62
2021/04/01 04:50:17;;;;;;;5.28;2.60;;;6.20;82.70;;;;;;4907453;29;20064;-61
2021/04/01 04:52:45;;;;;;;4.38;2.20;;;6.30;82.30;;;;;;4905178;29;20052;-61
2021/04/01 04:55:13;;;;;;;7.45;2.45;;;6.30;82.20;;;;;;4906117;29;20052;-62
2021/04/01 04:57:48;;;;;;;6.10;2.03;;;6.30;82.10;;;;;;4903994;29;20087;-62
2021/04/01 05:00:41;;;;;;;7.95;2.97;;;6.30;82.00;;;;;;4904980;29;20100;-61
2021/04/01 05:05:55;;;;;;;4.97;2.45;;;6.30;82.00;;;;;;4905569;29;20579;-62
2021/04/01 05:08:24;;;;;;;4.68;2.03;;;6.40;81.90;;;;;;4906331;29;20774;-62
2021/04/01 05:10:52;;;;;;;5.03;2.50;;;6.30;81.90;;;;;;4907384;29;20076;-62
2021/04/01 05:13:20;;;;;;;5.40;3.08;;;6.30;82.20;;;;;;4907399;29;20048;-61
2021/04/01 05:15:49;;;;;;;4.50;2.22;;;6.30;82.20;;;;;;4906263;29;20052;-61
2021/04/01 05:18:26;;;;;;;12.18;2.33;;;6.30;82.10;;;;;;4904062;29;20045;-62
2021/04/01 05:20:56;;;;;;;7.20;3.22;;;6.30;82.10;;;;;;4905301;29;20060;-62
2021/04/01 05:23:28;;;;;;;7.43;2.58;;;6.40;82.20;;;;;;4902868;29;20421;-62
2021/04/01 05:26:16;;;;;;;8.82;3.10;;;6.40;82.20;;;;;;4905554;29;20063;-61
2021/04/01 05:28:46;;;;;;;5.75;2.70;;;6.40;82.00;;;;;;4903704;29;20567;-62
2021/04/01 05:31:15;;;;;;;5.72;2.83;;;6.40;81.90;;;;;;4901927;29;20059;-62
2021/04/01 05:33:49;;;;;;;4.65;2.50;;;6.50;81.90;;;;;;4905769;29;20056;-62
2021/04/01 05:36:21;;;;;;;5.45;2.83;;;6.60;81.80;;;;;;4903906;29;20069;-62
2021/04/01 05:38:50;;;;;;;7.38;3.40;;;6.60;81.80;;;;;;4905053;29;20048;-61
2021/04/01 05:41:20;;;;;;;5.35;2.40;;;6.60;81.90;;;;;;4903609;29;20227;-61
2021/04/01 05:43:50;;;;;;;4.97;2.30;;;6.60;82.00;;;;;;4905277;29;20276;-61
2021/04/01 05:46:21;;;;;;;9.45;2.97;;;6.70;81.70;;;;;;4903746;29;20304;-61
2021/04/01 05:49:09;;;;;;;6.07;2.65;;;6.80;81.40;;;;;;4904442;29;20052;-62
2021/04/01 05:57:39;;;;;;;6.25;2.20;;;6.90;81.00;;;;;;4904027;29;20112;-62
2021/04/01 06:00:26;;;;;;;6.85;3.33;;;7.00;80.80;;;;;;4915489;29;20055;-61
2021/04/01 06:03:14;;;;;;;6.63;2.25;;;7.00;80.70;;;;;;4908772;29;20052;-62
2021/04/01 06:05:44;;;;;;;4.93;2.45;;;7.10;80.70;;;;;;4908355;29;20637;-62
2021/04/01 06:08:16;;;;;;;7.20;2.55;;;7.10;80.10;;;;;;4908834;29;20420;-61
2021/04/01 06:10:44;;;;;;;6.65;2.63;;;7.10;80.00;;;;;;4908510;29;20116;-60
2021/04/01 06:13:14;;;;;;;7.55;3.38;;;7.20;79.90;;;;;;4923772;29;20056;-61
2021/04/01 06:15:46;;;;;;;4.93;2.55;;;7.10;80.20;;;;;;4894168;29;20056;-61
2021/04/01 06:18:17;;;;;;;8.70;3.30;;;7.20;80.10;;;;;;4909065;29;20072;-61
2021/04/01 06:20:48;;;;;;;6.97;2.70;;;7.20;79.90;;;;;;4908352;29;20166;-61
2021/04/01 06:23:28;;;;;;;7.00;3.22;;;7.20;79.90;;;;;;4909442;29;20083;-60
2021/04/01 06:25:58;;;;;;;7.88;2.92;;;7.40;79.80;;;;;;4909409;29;20060;-62
2021/04/01 06:28:33;;;;;;;6.47;3.40;;;7.40;79.30;;;;;;4908354;29;20491;-61
2021/04/01 06:31:01;;;;;;;7.43;3.20;;;7.60;79.30;;;;;;4909860;29;20056;-62
2021/04/01 06:33:29;;;;;;;5.80;3.00;;;7.70;78.80;;;;;;4909372;29;20076;-62
2021/04/01 06:36:00;;;;;;;10.35;2.88;;;7.70;78.50;;;;;;4909252;29;20392;-61
2021/04/01 06:38:35;;;;;;;9.52;3.30;;;7.80;77.60;;;;;;4908806;29;20312;-62
2021/04/01 06:41:12;;;;;;;6.82;2.67;;;7.90;77.80;;;;;;4908689;29;20056;-61
2021/04/01 06:44:04;;;;;;;7.15;3.60;;;8.10;77.70;;;;;;4909230;29;20060;-62
2021/04/01 06:46:44;;;;;;;10.70;3.25;;;8.20;77.20;;;;;;4908079;29;20391;-62
2021/04/01 06:49:40;;;;;;;5.47;2.72;;;8.20;76.80;;;;;;4908466;29;20069;-62
2021/04/01 06:52:19;;;;;;;10.55;3.80;;;8.20;77.00;;;;;;4908784;29;20048;-61
2021/04/01 06:55:01;;;;;;;5.88;2.50;;;8.30;76.80;;;;;;4907935;29;20534;-61
2021/04/01 06:57:47;;;;;;;6.10;2.78;;;8.50;76.10;;;;;;4908661;29;20395;-62
2021/04/01 07:00:22;;;;;;;6.43;2.92;;;8.50;76.10;;;;;;4904495;29;20340;-62
2021/04/01 07:02:59;;;;;;;4.90;2.97;;;8.60;75.70;;;;;;4908342;29;20061;-61
2021/04/01 07:05:43;;;;;;;6.32;3.20;;;8.70;74.60;;;;;;4908085;29;20511;-62
2021/04/01 07:08:12;;;;;;;5.10;2.47;;;8.90;74.00;;;;;;4907274;29;20339;-62
2021/04/01 07:10:49;;;;;;;6.13;3.08;;;9.00;74.00;;;;;;4906276;29;20360;-63
2021/04/01 07:13:23;;;;;;;10.63;3.97;;;9.20;72.70;;;;;;4906480;29;20096;-62
2021/04/01 07:15:54;;;;;;;7.68;2.55;;;9.50;71.90;;;;;;4907245;29;20084;-63
2021/04/01 07:18:29;;;;;;;9.10;3.33;;;9.70;71.30;;;;;;4905823;29;20052;-62
2021/04/01 07:35:50;;;;;;;7.20;3.42;;;11.20;67.10;;;;;;4887447;29;20188;-62
2021/04/01 07:46:58;;;;;;;5.40;3.28;;;11.80;64.10;;;;;;4906159;29;20049;-62
2021/04/01 07:49:29;;;;;;;7.80;3.63;;;11.90;63.10;;;;;;4904492;29;20807;-62
2021/04/01 07:52:01;;;;;;;4.70;2.97;;;12.00;62.90;;;;;;4906477;29;20247;-62
2021/04/01 08:00:37;;;;;;;7.85;3.10;;;12.50;62.00;;;;;;4880927;29;20389;-62
2021/04/01 08:06:25;;;;;;;9.35;3.65;;;13.00;60.20;;;;;;4883911;29;20116;-61
2021/04/01 08:08:58;;;;;;;18.30;3.85;;;13.20;58.40;;;;;;4907357;29;20052;-61
2021/04/01 08:11:30;;;;;;;7.85;3.65;;;13.40;58.50;;;;;;4906764;29;20347;-62
2021/04/01 08:14:08;;;;;;;7.32;3.17;;;13.60;57.10;;;;;;4921110;29;20121;-61
2021/04/01 08:16:40;;;;;;;9.70;3.33;;;13.70;57.80;;;;;;4906974;29;20052;-61
2021/04/01 08:19:12;;;;;;;9.73;3.20;;;13.80;56.10;;;;;;4906526;29;20055;-62
2021/04/01 08:21:42;;;;;;;7.07;2.75;;;13.90;56.40;;;;;;4906891;29;20405;-62
2021/04/01 08:24:17;;;;;;;10.55;3.78;;;14.10;55.90;;;;;;4905941;29;20352;-62
2021/04/01 08:26:59;;;;;;;7.55;2.95;;;14.10;56.60;;;;;;4906124;29;20059;-62
2021/04/01 08:30:51;;;;;;;13.60;4.15;;;14.20;54.70;;;;;;4905830;29;20405;-62
2021/04/01 08:33:02;;;;;;;7.00;3.15;;;14.20;55.80;;;;;;4906068;29;21302;-62
2021/04/01 08:35:31;;;;;;;8.23;3.92;;;14.40;55.40;;;;;;4905095;29;20515;-62
2021/04/01 08:38:16;;;;;;;8.63;3.88;;;14.50;55.80;;;;;;4906091;29;20060;-61
2021/04/01 08:40:45;;;;;;;11.05;3.25;;;14.60;54.40;;;;;;4906596;29;20048;-61
2021/04/01 08:44:09;;;;;;;8.05;3.17;;;14.60;54.40;;;;;;4906005;29;20048;-62
2021/04/01 08:47:05;;;;;;;9.25;3.65;;;14.60;54.40;;;;;;4904005;29;20056;-62
2021/04/01 08:49:37;;;;;;;5.70;3.22;;;14.60;53.70;;;;;;4906582;29;20538;-62
2021/04/01 08:52:34;;;;;;;7.05;3.92;;;14.60;55.20;;;;;;4921199;29;20099;-62
2021/04/01 08:55:06;;;;;;;8.50;4.15;;;14.60;54.20;;;;;;4910084;29;20072;-62
2021/04/01 08:57:50;;;;;;;8.98;4.05;;;14.30;55.40;;;;;;4922453;29;20284;-61
2021/04/01 09:00:19;;;;;;;10.10;3.58;;;14.30;55.40;;;;;;4902038;29;20059;-61
2021/04/01 09:02:49;;;;;;;9.82;4.07;;;14.20;55.50;;;;;;4904634;29;20064;-62
2021/04/01 09:05:20;;;;;;;9.37;4.43;;;14.20;55.60;;;;;;4906114;29;20083;-62
2021/04/01 09:07:50;;;;;;;10.93;4.05;;;14.30;55.50;;;;;;4921418;29;20478;-62
2021/04/01 09:10:21;;;;;;;10.15;4.13;;;14.40;55.30;;;;;;4905840;29;20056;-62
2021/04/01 09:12:53;;;;;;;8.80;3.78;;;14.60;55.30;;;;;;4908673;29;20331;-62
2021/04/01 09:15:33;;;;;;;10.68;3.70;;;14.80;54.30;;;;;;4904723;29;20092;-63
2021/04/01 09:18:05;;;;;;;10.40;3.97;;;15.20;53.70;;;;;;4905244;29;20067;-61
2021/04/01 09:20:32;;;;;;;7.30;3.53;;;15.40;53.10;;;;;;4906327;29;20052;-62
2021/04/01 09:23:11;;;;;;;9.48;4.75;;;15.60;52.90;;;;;;4906345;29;20063;-62
2021/04/01 09:25:49;;;;;;;8.38;4.57;;;15.80;52.00;;;;;;4906142;29;20243;-62
2021/04/01 09:28:17;;;;;;;15.20;4.90;;;16.00;51.70;;;;;;4905486;29;20125;-62
2021/04/01 09:30:56;;;;;;;12.20;4.50;;;16.10;51.20;;;;;;4907859;29;20048;-62
2021/04/01 09:33:29;;;;;;;14.07;4.78;;;16.10;51.00;;;;;;4920199;29;20528;-62
2021/04/01 09:36:12;;;;;;;17.85;5.13;;;16.30;51.20;;;;;;4908188;29;20411;-62
2021/04/01 09:38:42;;;;;;;11.75;4.65;;;16.50;50.10;;;;;;4912441;29;20044;-62
2021/04/01 09:41:10;;;;;;;11.15;4.90;;;17.00;49.80;;;;;;4902660;29;20061;-63
2021/04/01 09:43:38;;;;;;;11.93;4.93;;;17.10;48.80;;;;;;4913104;29;20060;-63
2021/04/01 09:46:13;;;;;;;11.20;4.10;;;17.70;47.70;;;;;;4917062;29;20203;-62
2021/04/01 09:48:49;;;;;;;14.18;4.93;;;18.10;46.70;;;;;;4909864;29;20053;-62
2021/04/01 09:51:19;;;;;;;15.20;5.53;;;18.70;44.70;;;;;;4910043;29;20127;-62
2021/04/01 09:53:51;;;;;;;12.30;4.78;;;19.10;43.80;;;;;;4910413;29;20060;-62
2021/04/01 09:56:23;;;;;;;11.88;6.15;;;19.80;42.20;;;;;;4908415;29;20064;-62
2021/04/01 09:58:52;;;;;;;11.18;5.43;;;20.30;41.40;;;;;;4925065;29;20052;-62
2021/04/01 10:01:28;;;;;;;14.57;5.75;;;20.80;39.50;;;;;;4906618;29;20354;-62
2021/04/01 10:04:04;;;;;;;14.63;5.95;;;20.90;39.20;;;;;;4909385;29;20049;-63
2021/04/01 10:06:39;;;;;;;11.75;5.20;;;21.20;37.70;;;;;;4924823;29;20772;-61
2021/04/01 10:09:13;;;;;;;14.25;5.63;;;20.90;38.60;;;;;;4909718;29;20063;-61
2021/04/01 10:11:47;;;;;;;17.20;5.40;;;21.70;37.80;;;;;;4908413;29;20162;-63
2021/04/01 10:14:17;;;;;;;11.68;6.13;;;21.80;36.00;;;;;;4914158;29;20067;-63
2021/04/01 10:16:59;;;;;;;16.10;5.93;;;22.60;35.20;;;;;;4911275;29;20060;-62
2021/04/01 10:19:30;;;;;;;18.50;6.15;;;22.90;33.50;;;;;;4908584;29;20729;-62
2021/04/01 10:21:58;;;;;;;19.58;6.40;;;24.00;33.70;;;;;;4909683;29;20339;-62
2021/04/01 10:24:30;;;;;;;13.30;5.80;;;24.60;31.40;;;;;;4909927;29;20052;-62
2021/04/01 10:27:08;;;;;;;13.15;5.97;;;24.50;32.20;;;;;;4911051;29;20088;-63
2021/04/01 10:29:57;;;;;;;22.20;7.38;;;25.00;30.70;;;;;;4909938;29;20068;-63
2021/04/01 10:32:38;;;;;;;12.55;6.18;;;25.00;29.40;;;;;;4910633;29;20392;-62
2021/04/01 10:35:12;;;;;;;19.98;7.05;;;25.00;29.90;;;;;;4909148;29;20084;-62
2021/04/01 10:37:51;;;;;;;14.73;6.07;;;25.10;30.20;;;;;;4908255;29;20052;-63
2021/04/01 10:40:20;;;;;;;15.93;6.32;;;26.00;29.80;;;;;;4909991;29;20363;-63
2021/04/01 10:42:50;;;;;;;18.15;7.35;;;27.40;28.10;;;;;;4908746;29;20061;-62
2021/04/01 10:45:21;;;;;;;15.23;6.97;;;27.80;26.60;;;;;;4910833;29;20048;-62
2021/04/01 10:47:57;;;;;;;18.70;6.43;;;28.60;26.40;;;;;;4908847;29;20052;-63
2021/04/01 10:50:28;;;;;;;14.35;6.47;;;28.80;26.10;;;;;;4908953;29;20383;-62
2021/04/01 10:52:56;;;;;;;16.48;7.35;;;27.90;27.70;;;;;;4908750;29;20060;-62
2021/04/01 10:55:28;;;;;;;16.67;6.90;;;27.90;27.30;;;;;;4907736;29;20841;-62
2021/04/01 10:58:07;;;;;;;17.48;7.22;;;28.40;26.80;;;;;;4908804;29;20049;-63
2021/04/01 11:00:41;;;;;;;17.70;8.23;;;28.40;26.20;;;;;;4904172;29;20177;-63
2021/04/01 11:03:21;;;;;;;17.70;8.75;;;29.00;25.50;;;;;;4907381;29;20063;-62
2021/04/01 11:05:51;;;;;;;17.42;8.10;;;28.50;25.20;;;;;;4908813;29;20048;-63
2021/04/01 11:08:21;;;;;;;21.80;9.15;;;29.40;24.60;;;;;;4907520;29;20040;-62
2021/04/01 11:10:58;;;;;;;16.42;8.02;;;28.90;24.70;;;;;;4907463;29;20044;-62
2021/04/01 11:13:33;;;;;;;21.13;10.13;;;29.50;24.40;;;;;;4906440;29;21095;-62
2021/04/01 11:16:05;;;;;;;23.90;9.90;;;29.80;24.00;;;;;;4906564;29;20056;-62
2021/04/01 11:18:36;;;;;;;19.30;8.90;;;29.10;24.70;;;;;;4906278;29;20063;-62
2021/04/01 11:21:06;;;;;;;19.73;9.48;;;29.30;25.00;;;;;;4922992;29;20108;-62
2021/04/01 11:23:35;;;;;;;25.17;8.70;;;29.40;24.40;;;;;;4908554;29;20104;-63
2021/04/01 11:26:05;;;;;;;20.65;9.25;;;29.90;24.00;;;;;;4904699;29;20510;-62
2021/04/01 11:28:39;;;;;;;18.80;10.02;;;30.20;23.50;;;;;;4907798;29;20391;-62
2021/04/01 11:31:08;;;;;;;20.45;9.38;;;30.30;23.70;;;;;;4904215;29;20056;-62
2021/04/01 11:33:37;;;;;;;;;;;29.20;24.40;;;;;;4909029;29;20367;-68
2021/04/01 11:36:11;;;;;;;27.23;10.35;;;28.60;25.30;;;;;;4907744;29;19927;-63
2021/04/01 11:38:43;;;;;;;24.58;10.35;;;28.80;24.80;;;;;;4908462;29;20048;-62
2021/04/01 11:41:15;;;;;;;22.23;10.48;;;27.80;25.80;;;;;;4908455;29;20244;-62
2021/04/01 11:43:42;;;;;;;24.50;10.48;;;27.60;25.80;;;;;;4913468;29;20056;-62
2021/04/01 11:46:14;;;;;;;21.80;10.60;;;28.10;25.60;;;;;;4909539;29;20107;-62
2021/04/01 11:48:43;;;;;;;25.73;11.75;;;29.60;23.70;;;;;;4909081;29;20316;-62
2021/04/01 11:51:19;;;;;;;23.20;10.70;;;30.90;21.60;;;;;;4909833;29;20052;-62
2021/04/01 11:53:48;;;;;;;23.02;10.95;;;30.30;22.70;;;;;;4924199;29;20251;-62
2021/04/01 11:56:16;;;;;;;25.55;11.23;;;30.80;22.40;;;;;;4909313;29;20055;-62
2021/04/01 11:58:44;;;;;;;25.83;10.85;;;31.80;20.80;;;;;;4909780;29;20064;-62
2021/04/01 12:01:16;;;;;;;22.13;10.38;;;32.80;19.50;;;;;;4905406;29;20092;-62
2021/04/01 12:03:57;;;;;;;23.48;9.75;;;33.70;19.20;;;;;;4909738;29;20243;-62
2021/04/01 12:06:28;;;;;;;26.00;10.00;;;33.60;19.10;;;;;;4907854;29;21009;-63
2021/04/01 12:08:57;;;;;;;25.02;10.98;;;35.10;18.30;;;;;;4923605;29;20056;-62
2021/04/01 12:11:27;;;;;;;19.17;8.53;;;36.10;16.90;;;;;;4908003;29;20258;-62
2021/04/01 12:14:07;;;;;;;20.45;9.38;;;36.30;16.80;;;;;;4909332;29;20300;-63
2021/04/01 12:16:35;;;;;;;16.92;7.93;;;37.40;15.70;;;;;;4909581;29;20407;-63
2021/04/01 12:19:11;;;;;;;16.65;7.13;;;36.30;14.10;;;;;;4909762;29;20076;-62
2021/04/01 12:21:40;;;;;;;16.15;8.05;;;37.20;12.90;;;;;;4900142;29;20068;-63
2021/04/01 12:24:09;;;;;;;17.02;8.00;;;37.80;12.60;;;;;;4909130;29;20064;-63
2021/04/01 12:26:43;;;;;;;15.10;6.13;;;38.00;12.30;;;;;;4908395;29;20052;-62
2021/04/01 12:29:12;;;;;;;14.35;7.28;;;36.70;13.20;;;;;;4909650;29;20359;-63
2021/04/01 12:31:42;;;;;;;15.15;7.30;;;37.30;13.10;;;;;;4909312;29;20065;-62
2021/04/01 12:34:11;;;;;;;15.23;6.32;;;37.50;12.30;;;;;;4907190;29;20572;-62
2021/04/01 12:36:49;;;;;;;16.20;7.22;;;37.50;13.80;;;;;;4909121;29;20064;-68
2021/04/01 12:39:27;;;;;;;13.82;6.10;;;37.70;13.30;;;;;;4908906;29;20064;-62
2021/04/01 12:41:54;;;;;;;;;;;37.40;12.90;;;;;;4924054;29;20115;-62
2021/04/01 12:44:32;;;;;;;13.93;6.32;;;38.20;12.70;;;;;;4907092;29;19934;-62
2021/04/01 12:47:00;;;;;;;13.93;5.95;;;38.70;12.00;;;;;;4906930;29;20064;-62
2021/04/01 12:49:32;;;;;;;11.27;5.05;;;38.50;12.00;;;;;;4906940;29;20077;-62
2021/04/01 12:52:02;;;;;;;14.48;5.07;;;38.00;12.10;;;;;;4907606;29;20427;-62
2021/04/01 12:54:35;;;;;;;12.73;6.32;;;38.10;11.80;;;;;;4907073;29;20044;-63
2021/04/01 12:57:06;;;;;;;12.77;4.78;;;37.50;12.40;;;;;;4905585;29;20071;-63
2021/04/01 12:59:37;;;;;;;13.45;4.85;;;37.90;12.20;;;;;;4907275;29;20132;-63
2021/04/01 13:02:08;;;;;;;12.30;6.32;;;37.80;11.90;;;;;;4904280;29;20053;-62
2021/04/01 13:04:40;;;;;;;12.70;4.35;;;38.10;12.30;;;;;;4914582;29;20059;-62
2021/04/01 13:07:22;;;;;;;8.60;3.75;;;37.50;11.40;;;;;;4905748;29;20060;-62
2021/04/01 13:09:51;;;;;;;11.23;4.38;;;36.90;12.40;;;;;;4906853;29;20052;-63
2021/04/01 13:12:21;;;;;;;10.98;3.97;;;37.50;12.20;;;;;;4907609;29;20391;-63
2021/04/01 13:14:50;;;;;;;13.73;4.20;;;38.10;12.10;;;;;;4909775;29;20064;-62
2021/04/01 13:17:19;;;;;;;11.77;4.70;;;37.00;12.80;;;;;;4909904;29;20367;-63
2021/04/01 13:19:47;;;;;;;11.20;3.30;;;37.60;12.60;;;;;;4909572;29;20060;-63
2021/04/01 13:22:21;;;;;;;11.32;4.55;;;38.00;11.70;;;;;;4910544;29;20087;-63
2021/04/01 13:27:37;;;;;;;7.63;2.80;;;35.70;12.90;;;;;;4909460;29;20443;-63
2021/04/01 13:30:10;;;;;;;9.20;3.00;;;36.60;11.90;;;;;;4912605;29;20063;-62
2021/04/01 13:32:42;;;;;;;8.85;2.97;;;34.80;13.00;;;;;;4911013;29;20056;-62
2021/04/01 13:35:14;;;;;;;7.40;2.80;;;35.00;13.90;;;;;;4909535;29;20149;-62
2021/04/01 13:37:46;;;;;;;7.13;2.38;;;35.40;14.10;;;;;;4912534;29;20048;-62
2021/04/01 13:40:16;;;;;;;6.57;3.05;;;37.00;12.30;;;;;;4912702;29;20120;-63
2021/04/01 13:42:47;;;;;;;7.45;3.28;;;37.30;12.20;;;;;;4911823;29;20304;-63
2021/04/01 13:45:17;;;;;;;11.35;2.45;;;37.10;12.00;;;;;;4913630;29;20056;-62
2021/04/01 13:47:49;;;;;;;9.43;3.15;;;36.60;12.90;;;;;;4913060;29;20239;-63
2021/04/01 13:50:22;;;;;;;7.97;2.88;;;36.80;12.20;;;;;;4912440;29;20055;-62
2021/04/01 13:52:57;;;;;;;9.70;2.92;;;37.20;11.80;;;;;;4911897;29;20076;-62
2021/04/01 13:55:28;;;;;;;6.93;2.60;;;35.50;12.90;;;;;;4910336;29;20306;-62
2021/04/01 14:01:07;;;;;;;11.15;3.00;;;35.90;13.20;;;;;;4907901;29;20044;-62
2021/04/01 14:04:01;;;;;;;13.65;3.53;;;36.50;13.10;;;;;;4898477;29;20301;-62
2021/04/01 14:09:30;;;;;;;8.18;2.97;;;37.00;13.50;;;;;;4909521;29;21063;-62